sensor_id;sensor_type;location;lat;lon;timestamp;pressure;altitude;pressure_sealevel;temperature;humidity
9139;BME280;4604;48.616;9.548;2023-04-01T00:01:51;95606.06;;;9.48;80.73
9139;BME280;4604;48.616;9.548;2023-04-01T00:04:18;95611.34;;;9.48;79.76
9139;BME280;4604;48.616;9.548;2023-04-01T00:06:45;95612.00;;;9.67;79.33
9139;BME280;4604;48.616;9.548;2023-04-01T00:09:14;95605.09;;;9.49;78.64
9139;BME280;4604;48.616;9.548;2023-04-01T00:11:41;95602.28;;;9.67;79.40
9139;BME280;4604;48.616;9.548;2023-04-01T00:14:07;95601.78;;;9.55;79.58
9139;BME280;4604;48.616;9.548;2023-04-01T00:16:34;95619.25;;;9.56;78.35
9139;BME280;4604;48.616;9.548;2023-04-01T00:19:04;95602.28;;;9.59;79.26
9139;BME280;4604;48.616;9.548;2023-04-01T00:21:32;95604.75;;;9.69;78.11
9139;BME280;4604;48.616;9.548;2023-04-01T00:23:59;95604.06;;;9.75;77.24
9139;BME280;4604;48.616;9.548;2023-04-01T00:26:27;95612.66;;;9.69;77.37
9139;BME280;4604;48.616;9.548;2023-04-01T00:28:54;95603.75;;;9.78;76.99
9139;BME280;4604;48.616;9.548;2023-04-01T00:31:21;95606.06;;;9.64;76.95
9139;BME280;4604;48.616;9.548;2023-04-01T00:33:47;95593.88;;;9.55;78.41
9139;BME280;4604;48.616;9.548;2023-04-01T00:36:16;95600.31;;;9.61;78.27
9139;BME280;4604;48.616;9.548;2023-04-01T00:38:44;95598.50;;;9.45;78.71
9139;BME280;4604;48.616;9.548;2023-04-01T00:41:12;95594.06;;;9.54;76.21
9139;BME280;4604;48.616;9.548;2023-04-01T00:43:41;95590.41;;;9.63;75.99
9139;BME280;4604;48.616;9.548;2023-04-01T00:46:08;95596.50;;;9.55;76.43
9139;BME280;4604;48.616;9.548;2023-04-01T00:48:37;95581.38;;;9.33;76.66
9139;BME280;4604;48.616;9.548;2023-04-01T00:51:07;95595.69;;;9.38;77.07
9139;BME280;4604;48.616;9.548;2023-04-01T00:53:37;95595.19;;;9.43;77.54
9139;BME280;4604;48.616;9.548;2023-04-01T00:56:10;95609.84;;;9.46;77.34
9139;BME280;4604;48.616;9.548;2023-04-01T00:58:42;95603.44;;;9.48;77.00
9139;BME280;4604;48.616;9.548;2023-04-01T01:01:10;95602.28;;;9.51;77.80
9139;BME280;4604;48.616;9.548;2023-04-01T01:03:37;95602.13;;;9.44;77.90
9139;BME280;4604;48.616;9.548;2023-04-01T01:06:10;95608.88;;;9.47;78.49
9139;BME280;4604;48.616;9.548;2023-04-01T01:08:51;95609.69;;;9.47;78.39
9139;BME280;4604;48.616;9.548;2023-04-01T01:11:24;95594.88;;;9.21;80.18
9139;BME280;4604;48.616;9.548;2023-04-01T01:14:01;95598.50;;;9.29;79.02
9139;BME280;4604;48.616;9.548;2023-04-01T01:16:37;95611.84;;;9.35;78.81
9139;BME280;4604;48.616;9.548;2023-04-01T01:19:10;95618.75;;;9.28;79.07
9139;BME280;4604;48.616;9.548;2023-04-01T01:21:55;95582.38;;;9.15;79.54
9139;BME280;4604;48.616;9.548;2023-04-01T01:24:50;95599.97;;;9.15;79.36
9139;BME280;4604;48.616;9.548;2023-04-01T01:27:20;95599.81;;;9.08;78.94
9139;BME280;4604;48.616;9.548;2023-04-01T01:30:23;95594.72;;;9.15;79.66
9139;BME280;4604;48.616;9.548;2023-04-01T01:33:13;95600.94;;;9.14;80.65
9139;BME280;4604;48.616;9.548;2023-04-01T01:35:46;95611.66;;;9.20;81.44
9139;BME280;4604;48.616;9.548;2023-04-01T01:38:17;95604.09;;;9.17;81.66
9139;BME280;4604;48.616;9.548;2023-04-01T01:40:47;95623.63;;;8.98;82.55
9139;BME280;4604;48.616;9.548;2023-04-01T01:43:20;95590.59;;;9.12;81.98
9139;BME280;4604;48.616;9.548;2023-04-01T01:45:50;95596.34;;;9.16;80.99
9139;BME280;4604;48.616;9.548;2023-04-01T01:48:19;95598.13;;;8.99;81.20
9139;BME280;4604;48.616;9.548;2023-04-01T01:50:48;95592.06;;;8.90;81.65
9139;BME280;4604;48.616;9.548;2023-04-01T01:53:15;95592.88;;;8.91;82.19
9139;BME280;4604;48.616;9.548;2023-04-01T01:55:44;95592.25;;;9.05;80.42
9139;BME280;4604;48.616;9.548;2023-04-01T01:58:16;95583.03;;;9.26;79.27
9139;BME280;4604;48.616;9.548;2023-04-01T02:00:47;95636.97;;;9.13;80.59
9139;BME280;4604;48.616;9.548;2023-04-01T02:03:16;95605.22;;;8.90;83.12
9139;BME280;4604;48.616;9.548;2023-04-01T02:05:44;95614.06;;;8.81;83.40
9139;BME280;4604;48.616;9.548;2023-04-01T02:08:14;95590.19;;;8.74;83.15
9139;BME280;4604;48.616;9.548;2023-04-01T02:10:47;95593.81;;;8.73;82.26
9139;BME280;4604;48.616;9.548;2023-04-01T02:13:22;95600.25;;;8.87;81.48
9139;BME280;4604;48.616;9.548;2023-04-01T02:15:59;95602.88;;;8.87;80.59
9139;BME280;4604;48.616;9.548;2023-04-01T02:18:28;95599.94;;;8.90;80.00
9139;BME280;4604;48.616;9.548;2023-04-01T02:20:57;95606.50;;;8.86;80.98
9139;BME280;4604;48.616;9.548;2023-04-01T02:23:27;95611.78;;;8.86;82.31
9139;BME280;4604;48.616;9.548;2023-04-01T02:25:55;95630.81;;;8.72;83.49
9139;BME280;4604;48.616;9.548;2023-04-01T02:28:22;95605.78;;;8.60;85.33
9139;BME280;4604;48.616;9.548;2023-04-01T02:30:50;95605.63;;;8.69;84.16
9139;BME280;4604;48.616;9.548;2023-04-01T02:33:18;95595.28;;;8.68;84.17
9139;BME280;4604;48.616;9.548;2023-04-01T02:35:46;95600.53;;;8.68;82.16
9139;BME280;4604;48.616;9.548;2023-04-01T02:38:12;95589.72;;;8.87;80.31
9139;BME280;4604;48.616;9.548;2023-04-01T02:40:44;95612.53;;;8.70;80.54
9139;BME280;4604;48.616;9.548;2023-04-01T02:43:11;95613.03;;;8.66;80.82
9139;BME280;4604;48.616;9.548;2023-04-01T02:45:38;95613.53;;;8.61;81.53
9139;BME280;4604;48.616;9.548;2023-04-01T02:48:05;95616.50;;;8.74;81.35
9139;BME280;4604;48.616;9.548;2023-04-01T02:50:32;95626.84;;;8.68;81.78
9139;BME280;4604;48.616;9.548;2023-04-01T02:53:00;95619.50;;;8.88;80.72
9139;BME280;4604;48.616;9.548;2023-04-01T02:55:28;95618.78;;;8.61;83.32
9139;BME280;4604;48.616;9.548;2023-04-01T02:57:56;95616.16;;;8.61;83.35
9139;BME280;4604;48.616;9.548;2023-04-01T03:00:23;95616.81;;;8.71;82.21
9139;BME280;4604;48.616;9.548;2023-04-01T03:02:50;95630.94;;;8.70;83.00
9139;BME280;4604;48.616;9.548;2023-04-01T03:05:17;95608.47;;;8.84;81.36
9139;BME280;4604;48.616;9.548;2023-04-01T03:07:44;95610.63;;;8.81;81.87
9139;BME280;4604;48.616;9.548;2023-04-01T03:10:11;95622.56;;;8.67;82.32
9139;BME280;4604;48.616;9.548;2023-04-01T03:12:38;95614.94;;;8.55;83.11
9139;BME280;4604;48.616;9.548;2023-04-01T03:15:08;95617.75;;;8.54;82.37
9139;BME280;4604;48.616;9.548;2023-04-01T03:17:36;95602.13;;;8.44;81.50
9139;BME280;4604;48.616;9.548;2023-04-01T03:20:03;95607.88;;;8.48;81.13
9139;BME280;4604;48.616;9.548;2023-04-01T03:22:30;95616.22;;;8.43;81.40
9139;BME280;4604;48.616;9.548;2023-04-01T03:24:57;95615.66;;;8.31;80.93
9139;BME280;4604;48.616;9.548;2023-04-01T03:27:23;95620.88;;;8.49;80.86
9139;BME280;4604;48.616;9.548;2023-04-01T03:29:50;95608.50;;;8.42;80.19
9139;BME280;4604;48.616;9.548;2023-04-01T03:32:18;95614.88;;;8.39;80.11
9139;BME280;4604;48.616;9.548;2023-04-01T03:34:45;95624.13;;;8.43;78.18
9139;BME280;4604;48.616;9.548;2023-04-01T03:37:12;95628.50;;;8.34;79.70
9139;BME280;4604;48.616;9.548;2023-04-01T03:39:39;95609.63;;;8.39;79.80
9139;BME280;4604;48.616;9.548;2023-04-01T03:42:06;95623.25;;;8.34;77.88
9139;BME280;4604;48.616;9.548;2023-04-01T03:44:33;95626.00;;;8.25;78.64
9139;BME280;4604;48.616;9.548;2023-04-01T03:47:00;95616.41;;;8.42;77.50
9139;BME280;4604;48.616;9.548;2023-04-01T03:49:28;95599.69;;;8.59;76.81
9139;BME280;4604;48.616;9.548;2023-04-01T03:51:54;95608.91;;;8.63;77.14
9139;BME280;4604;48.616;9.548;2023-04-01T03:54:21;95630.59;;;8.65;77.13
9139;BME280;4604;48.616;9.548;2023-04-01T03:56:48;95608.66;;;8.40;78.31
9139;BME280;4604;48.616;9.548;2023-04-01T03:59:15;95615.47;;;8.25;79.43
9139;BME280;4604;48.616;9.548;2023-04-01T04:01:42;95624.03;;;8.27;78.72
9139;BME280;4604;48.616;9.548;2023-04-01T04:04:10;95618.94;;;8.33;78.23
9139;BME280;4604;48.616;9.548;2023-04-01T04:06:39;95608.56;;;8.24;78.88
9139;BME280;4604;48.616;9.548;2023-04-01T04:09:06;95610.00;;;8.44;77.78
9139;BME280;4604;48.616;9.548;2023-04-01T04:11:32;95599.06;;;8.31;77.63
9139;BME280;4604;48.616;9.548;2023-04-01T04:13:59;95603.44;;;8.48;77.58
9139;BME280;4604;48.616;9.548;2023-04-01T04:16:26;95597.81;;;8.43;77.98
9139;BME280;4604;48.616;9.548;2023-04-01T04:18:52;95592.41;;;8.45;78.29
9139;BME280;4604;48.616;9.548;2023-04-01T04:21:19;95588.50;;;8.49;78.06
9139;BME280;4604;48.616;9.548;2023-04-01T04:23:47;95587.81;;;8.47;78.52
9139;BME280;4604;48.616;9.548;2023-04-01T04:26:14;95577.13;;;8.40;78.77
9139;BME280;4604;48.616;9.548;2023-04-01T04:28:41;95597.06;;;8.59;77.17
9139;BME280;4604;48.616;9.548;2023-04-01T04:31:08;95603.63;;;8.55;77.34
9139;BME280;4604;48.616;9.548;2023-04-01T04:33:35;95595.00;;;8.36;77.72
9139;BME280;4604;48.616;9.548;2023-04-01T04:36:03;95602.78;;;8.46;77.93
9139;BME280;4604;48.616;9.548;2023-04-01T04:38:30;95593.25;;;8.45;78.04
9139;BME280;4604;48.616;9.548;2023-04-01T04:40:58;95587.53;;;8.58;77.27
9139;BME280;4604;48.616;9.548;2023-04-01T04:43:25;95590.59;;;8.45;77.72
9139;BME280;4604;48.616;9.548;2023-04-01T04:45:52;95581.25;;;8.51;78.14
9139;BME280;4604;48.616;9.548;2023-04-01T04:48:19;95583.09;;;8.59;77.26
9139;BME280;4604;48.616;9.548;2023-04-01T04:50:49;95584.19;;;8.40;78.17
9139;BME280;4604;48.616;9.548;2023-04-01T04:53:19;95576.22;;;8.31;78.58
9139;BME280;4604;48.616;9.548;2023-04-01T04:55:47;95569.75;;;8.44;78.95
9139;BME280;4604;48.616;9.548;2023-04-01T04:58:16;95583.44;;;8.64;77.29
9139;BME280;4604;48.616;9.548;2023-04-01T05:00:43;95576.22;;;8.74;76.42
9139;BME280;4604;48.616;9.548;2023-04-01T05:03:10;95580.34;;;8.68;77.04
9139;BME280;4604;48.616;9.548;2023-04-01T05:05:38;95569.22;;;8.40;78.17
9139;BME280;4604;48.616;9.548;2023-04-01T05:08:05;95594.13;;;8.62;76.85
9139;BME280;4604;48.616;9.548;2023-04-01T05:10:32;95565.19;;;8.62;76.29
9139;BME280;4604;48.616;9.548;2023-04-01T05:13:00;95593.03;;;8.81;75.73
9139;BME280;4604;48.616;9.548;2023-04-01T05:15:29;95580.16;;;8.62;76.41
9139;BME280;4604;48.616;9.548;2023-04-01T05:17:55;95602.25;;;8.85;75.93
9139;BME280;4604;48.616;9.548;2023-04-01T05:20:22;95590.69;;;8.70;75.51
9139;BME280;4604;48.616;9.548;2023-04-01T05:22:49;95594.94;;;8.63;76.67
9139;BME280;4604;48.616;9.548;2023-04-01T05:25:18;95584.88;;;8.58;75.54
9139;BME280;4604;48.616;9.548;2023-04-01T05:27:45;95600.09;;;8.81;75.16
9139;BME280;4604;48.616;9.548;2023-04-01T05:30:12;95571.50;;;8.94;73.88
9139;BME280;4604;48.616;9.548;2023-04-01T05:32:40;95567.03;;;8.86;73.66
9139;BME280;4604;48.616;9.548;2023-04-01T05:35:07;95576.75;;;8.86;74.27
9139;BME280;4604;48.616;9.548;2023-04-01T05:37:34;95579.06;;;8.81;74.07
9139;BME280;4604;48.616;9.548;2023-04-01T05:40:01;95596.13;;;8.85;74.30
9139;BME280;4604;48.616;9.548;2023-04-01T05:42:30;95592.53;;;9.02;73.74
9139;BME280;4604;48.616;9.548;2023-04-01T05:44:56;95585.78;;;8.99;73.70
9139;BME280;4604;48.616;9.548;2023-04-01T05:47:23;95568.22;;;9.00;73.53
9139;BME280;4604;48.616;9.548;2023-04-01T05:49:51;95590.94;;;9.17;72.35
9139;BME280;4604;48.616;9.548;2023-04-01T05:52:18;95568.91;;;9.27;71.76
9139;BME280;4604;48.616;9.548;2023-04-01T05:54:45;95577.28;;;9.22;71.70
9139;BME280;4604;48.616;9.548;2023-04-01T05:57:11;95591.09;;;9.08;70.23
9139;BME280;4604;48.616;9.548;2023-04-01T05:59:38;95585.31;;;9.04;71.02
9139;BME280;4604;48.616;9.548;2023-04-01T06:02:05;95588.13;;;9.11;70.81
9139;BME280;4604;48.616;9.548;2023-04-01T06:04:37;95599.47;;;9.11;71.08
9139;BME280;4604;48.616;9.548;2023-04-01T06:07:11;95585.00;;;9.15;70.39
9139;BME280;4604;48.616;9.548;2023-04-01T06:09:38;95588.28;;;9.26;70.80
9139;BME280;4604;48.616;9.548;2023-04-01T06:12:20;95575.28;;;9.16;70.45
9139;BME280;4604;48.616;9.548;2023-04-01T06:14:55;95583.03;;;9.26;70.77
9139;BME280;4604;48.616;9.548;2023-04-01T06:17:32;95582.53;;;9.47;69.20
9139;BME280;4604;48.616;9.548;2023-04-01T06:20:08;95583.03;;;9.34;70.03
9139;BME280;4604;48.616;9.548;2023-04-01T06:26:01;95564.44;;;9.35;69.87
9139;BME280;4604;48.616;9.548;2023-04-01T06:31:51;95558.00;;;9.71;67.92
9139;BME280;4604;48.616;9.548;2023-04-01T06:34:34;95566.22;;;9.76;67.59
9139;BME280;4604;48.616;9.548;2023-04-01T06:37:18;95549.41;;;9.77;67.95
9139;BME280;4604;48.616;9.548;2023-04-01T06:40:05;95556.50;;;9.76;67.08
9139;BME280;4604;48.616;9.548;2023-04-01T06:42:58;95566.88;;;9.78;67.31
9139;BME280;4604;48.616;9.548;2023-04-01T06:45:34;95555.81;;;9.91;68.25
9139;BME280;4604;48.616;9.548;2023-04-01T06:48:15;95526.38;;;10.18;67.19
9139;BME280;4604;48.616;9.548;2023-04-01T06:50:53;95558.72;;;10.04;66.83
9139;BME280;4604;48.616;9.548;2023-04-01T06:53:28;95555.09;;;10.05;66.79
9139;BME280;4604;48.616;9.548;2023-04-01T06:56:02;95549.75;;;10.21;66.13
9139;BME280;4604;48.616;9.548;2023-04-01T06:58:39;95567.44;;;10.13;65.40
9139;BME280;4604;48.616;9.548;2023-04-01T07:01:13;95569.88;;;10.14;65.54
9139;BME280;4604;48.616;9.548;2023-04-01T07:03:43;95580.63;;;10.04;65.46
9139;BME280;4604;48.616;9.548;2023-04-01T07:06:16;95559.34;;;10.14;66.41
9139;BME280;4604;48.616;9.548;2023-04-01T07:08:48;95551.78;;;10.11;66.18
9139;BME280;4604;48.616;9.548;2023-04-01T07:11:22;95538.50;;;9.96;66.59
9139;BME280;4604;48.616;9.548;2023-04-01T07:13:54;95553.28;;;10.05;65.50
9139;BME280;4604;48.616;9.548;2023-04-01T07:16:26;95549.28;;;10.18;65.49
9139;BME280;4604;48.616;9.548;2023-04-01T07:18:59;95553.25;;;10.22;65.63
9139;BME280;4604;48.616;9.548;2023-04-01T07:21:34;95558.44;;;9.91;66.62
9139;BME280;4604;48.616;9.548;2023-04-01T07:24:05;95562.06;;;9.81;67.46
9139;BME280;4604;48.616;9.548;2023-04-01T07:26:35;95552.59;;;10.12;66.29
9139;BME280;4604;48.616;9.548;2023-04-01T07:29:09;95557.03;;;10.19;66.56
9139;BME280;4604;48.616;9.548;2023-04-01T07:31:48;95546.44;;;9.88;66.82
9139;BME280;4604;48.616;9.548;2023-04-01T07:34:19;95553.44;;;10.12;66.55
9139;BME280;4604;48.616;9.548;2023-04-01T07:36:52;95549.34;;;10.01;66.49
9139;BME280;4604;48.616;9.548;2023-04-01T07:39:30;95541.03;;;10.21;66.13
9139;BME280;4604;48.616;9.548;2023-04-01T07:42:06;95548.69;;;10.07;65.55
9139;BME280;4604;48.616;9.548;2023-04-01T07:44:44;95575.31;;;10.29;65.37
9139;BME280;4604;48.616;9.548;2023-04-01T07:47:23;95551.56;;;10.37;66.23
9139;BME280;4604;48.616;9.548;2023-04-01T07:50:06;95553.53;;;10.27;65.66
9139;BME280;4604;48.616;9.548;2023-04-01T07:52:39;95547.41;;;10.43;65.22
9139;BME280;4604;48.616;9.548;2023-04-01T07:55:14;95553.69;;;10.42;64.84
9139;BME280;4604;48.616;9.548;2023-04-01T07:57:48;95556.97;;;10.44;64.52
9139;BME280;4604;48.616;9.548;2023-04-01T08:00:23;95556.84;;;10.21;66.20
9139;BME280;4604;48.616;9.548;2023-04-01T08:03:04;95527.19;;;10.58;64.80
9139;BME280;4604;48.616;9.548;2023-04-01T08:05:39;95568.78;;;10.48;64.37
9139;BME280;4604;48.616;9.548;2023-04-01T08:08:16;95563.91;;;10.37;64.96
9139;BME280;4604;48.616;9.548;2023-04-01T08:10:49;95555.53;;;10.25;64.92
9139;BME280;4604;48.616;9.548;2023-04-01T08:13:26;95580.19;;;10.48;65.06
9139;BME280;4604;48.616;9.548;2023-04-01T08:16:04;95556.50;;;10.24;64.96
9139;BME280;4604;48.616;9.548;2023-04-01T08:18:39;95561.38;;;10.52;64.98
9139;BME280;4604;48.616;9.548;2023-04-01T08:21:14;95550.31;;;10.56;63.91
9139;BME280;4604;48.616;9.548;2023-04-01T08:23:44;95551.94;;;10.57;63.96
9139;BME280;4604;48.616;9.548;2023-04-01T08:26:18;95556.09;;;10.52;63.85
9139;BME280;4604;48.616;9.548;2023-04-01T08:28:52;95541.38;;;10.57;64.05
9139;BME280;4604;48.616;9.548;2023-04-01T08:31:29;95574.97;;;10.32;65.28
9139;BME280;4604;48.616;9.548;2023-04-01T08:33:57;95581.31;;;10.54;64.98
9139;BME280;4604;48.616;9.548;2023-04-01T08:36:28;95576.81;;;10.15;64.72
9139;BME280;4604;48.616;9.548;2023-04-01T08:39:01;95575.81;;;10.24;65.22
9139;BME280;4604;48.616;9.548;2023-04-01T08:51:03;95583.09;;;10.62;64.27
9139;BME280;4604;48.616;9.548;2023-04-01T08:53:46;95568.84;;;10.71;63.45
9139;BME280;4604;48.616;9.548;2023-04-01T08:56:21;95553.69;;;10.73;63.39
9139;BME280;4604;48.616;9.548;2023-04-01T08:59:24;95572.31;;;10.71;64.40
9139;BME280;4604;48.616;9.548;2023-04-01T09:02:03;95576.19;;;10.61;63.84
9139;BME280;4604;48.616;9.548;2023-04-01T09:04:45;95583.13;;;10.54;63.59
9139;BME280;4604;48.616;9.548;2023-04-01T09:07:32;95555.91;;;10.84;64.14
9139;BME280;4604;48.616;9.548;2023-04-01T09:10:23;95596.44;;;10.91;63.74
9139;BME280;4604;48.616;9.548;2023-04-01T09:13:01;95580.66;;;10.83;65.74
9139;BME280;4604;48.616;9.548;2023-04-01T09:15:54;95571.00;;;10.67;66.65
9139;BME280;4604;48.616;9.548;2023-04-01T09:18:48;95591.31;;;10.11;70.26
9139;BME280;4604;48.616;9.548;2023-04-01T09:21:25;95589.13;;;10.31;71.22
9139;BME280;4604;48.616;9.548;2023-04-01T09:24:23;95591.34;;;9.95;73.26
9139;BME280;4604;48.616;9.548;2023-04-01T09:27:03;95595.69;;;9.88;74.68
9139;BME280;4604;48.616;9.548;2023-04-01T09:29:48;95601.75;;;9.80;74.78
9139;BME280;4604;48.616;9.548;2023-04-01T09:32:34;95590.25;;;9.81;74.87
9139;BME280;4604;48.616;9.548;2023-04-01T09:35:21;95585.13;;;9.88;75.94
9139;BME280;4604;48.616;9.548;2023-04-01T09:37:54;95586.00;;;9.63;75.34
9139;BME280;4604;48.616;9.548;2023-04-01T09:40:33;95579.88;;;9.71;74.82
9139;BME280;4604;48.616;9.548;2023-04-01T09:43:22;95594.66;;;9.97;74.25
9139;BME280;4604;48.616;9.548;2023-04-01T09:46:10;95583.72;;;10.16;72.97
9139;BME280;4604;48.616;9.548;2023-04-01T09:49:01;95599.41;;;10.01;73.85
9139;BME280;4604;48.616;9.548;2023-04-01T09:51:37;95596.91;;;10.16;73.35
9139;BME280;4604;48.616;9.548;2023-04-01T09:54:20;95595.41;;;10.22;72.99
9139;BME280;4604;48.616;9.548;2023-04-01T09:57:25;95611.88;;;10.24;72.78
9139;BME280;4604;48.616;9.548;2023-04-01T10:00:20;95611.06;;;10.32;72.51
9139;BME280;4604;48.616;9.548;2023-04-01T10:03:30;95593.31;;;10.57;71.18
9139;BME280;4604;48.616;9.548;2023-04-01T10:06:34;95617.63;;;10.36;72.20
9139;BME280;4604;48.616;9.548;2023-04-01T10:15:38;95620.22;;;9.72;80.12
9139;BME280;4604;48.616;9.548;2023-04-01T10:18:44;95634.69;;;9.84;80.20
9139;BME280;4604;48.616;9.548;2023-04-01T10:21:29;95620.88;;;9.65;83.25
9139;BME280;4604;48.616;9.548;2023-04-01T10:30:48;95627.66;;;9.68;81.82
9139;BME280;4604;48.616;9.548;2023-04-01T10:33:41;95641.59;;;9.36;82.20
9139;BME280;4604;48.616;9.548;2023-04-01T10:39:32;95624.19;;;9.35;84.78
9139;BME280;4604;48.616;9.548;2023-04-01T10:42:22;95628.44;;;9.19;84.32
9139;BME280;4604;48.616;9.548;2023-04-01T10:48:19;95610.16;;;9.26;86.36
9139;BME280;4604;48.616;9.548;2023-04-01T10:51:04;95615.94;;;9.30;87.24
9139;BME280;4604;48.616;9.548;2023-04-01T10:53:42;95626.47;;;9.54;88.57
9139;BME280;4604;48.616;9.548;2023-04-01T11:02:30;95621.53;;;9.84;84.23
9139;BME280;4604;48.616;9.548;2023-04-01T11:05:45;95624.94;;;10.01;82.89
9139;BME280;4604;48.616;9.548;2023-04-01T11:12:01;95620.78;;;10.31;78.79
9139;BME280;4604;48.616;9.548;2023-04-01T11:18:05;95632.44;;;10.84;77.29
9139;BME280;4604;48.616;9.548;2023-04-01T11:24:11;95617.78;;;10.82;76.88
9139;BME280;4604;48.616;9.548;2023-04-01T11:26:52;95627.81;;;10.86;73.94
9139;BME280;4604;48.616;9.548;2023-04-01T11:30:02;95614.41;;;11.19;74.25
9139;BME280;4604;48.616;9.548;2023-04-01T11:32:50;95625.06;;;11.34;72.03
9139;BME280;4604;48.616;9.548;2023-04-01T11:35:47;95625.91;;;11.03;71.13
9139;BME280;4604;48.616;9.548;2023-04-01T11:38:34;95640.19;;;11.40;72.71
9139;BME280;4604;48.616;9.548;2023-04-01T11:41:17;95619.78;;;11.34;72.06
9139;BME280;4604;48.616;9.548;2023-04-01T11:43:57;95628.78;;;11.63;71.05
9139;BME280;4604;48.616;9.548;2023-04-01T11:46:36;95645.97;;;11.82;70.75
9139;BME280;4604;48.616;9.548;2023-04-01T11:49:20;95641.94;;;11.48;68.59
9139;BME280;4604;48.616;9.548;2023-04-01T11:52:03;95635.88;;;11.16;70.35
9139;BME280;4604;48.616;9.548;2023-04-01T11:54:55;95643.50;;;10.88;71.40
9139;BME280;4604;48.616;9.548;2023-04-01T11:57:40;95652.34;;;10.95;70.87
9139;BME280;4604;48.616;9.548;2023-04-01T12:00:21;95629.66;;;11.09;69.50
9139;BME280;4604;48.616;9.548;2023-04-01T12:03:05;95660.13;;;11.20;70.22
9139;BME280;4604;48.616;9.548;2023-04-01T12:05:42;95656.19;;;11.39;70.49
9139;BME280;4604;48.616;9.548;2023-04-01T12:08:22;95666.69;;;10.61;71.53
9139;BME280;4604;48.616;9.548;2023-04-01T12:10:54;95650.34;;;10.66;73.05
9139;BME280;4604;48.616;9.548;2023-04-01T12:13:34;95629.53;;;10.71;71.39
9139;BME280;4604;48.616;9.548;2023-04-01T12:16:12;95652.88;;;10.43;72.92
9139;BME280;4604;48.616;9.548;2023-04-01T12:18:48;95658.06;;;10.67;71.40
9139;BME280;4604;48.616;9.548;2023-04-01T12:21:24;95656.03;;;10.86;72.57
9139;BME280;4604;48.616;9.548;2023-04-01T12:24:05;95655.19;;;11.17;70.98
9139;BME280;4604;48.616;9.548;2023-04-01T12:26:47;95667.75;;;10.83;71.55
9139;BME280;4604;48.616;9.548;2023-04-01T12:29:42;95664.16;;;10.68;72.84
9139;BME280;4604;48.616;9.548;2023-04-01T12:32:20;95661.31;;;10.86;73.44
9139;BME280;4604;48.616;9.548;2023-04-01T12:35:00;95649.22;;;10.91;71.63
9139;BME280;4604;48.616;9.548;2023-04-01T12:37:36;95669.44;;;10.76;73.56
9139;BME280;4604;48.616;9.548;2023-04-01T12:40:20;95672.56;;;10.71;72.96
9139;BME280;4604;48.616;9.548;2023-04-01T12:43:14;95682.53;;;10.53;74.46
9139;BME280;4604;48.616;9.548;2023-04-01T12:45:55;95665.06;;;10.52;75.18
9139;BME280;4604;48.616;9.548;2023-04-01T12:51:51;95672.50;;;10.40;75.15
9139;BME280;4604;48.616;9.548;2023-04-01T12:54:53;95675.97;;;10.49;76.82
9139;BME280;4604;48.616;9.548;2023-04-01T12:57:51;95663.97;;;10.78;77.06
9139;BME280;4604;48.616;9.548;2023-04-01T13:06:26;95684.84;;;10.48;78.74
9139;BME280;4604;48.616;9.548;2023-04-01T13:09:04;95689.41;;;10.62;79.59
9139;BME280;4604;48.616;9.548;2023-04-01T13:11:48;95686.44;;;10.74;81.44
9139;BME280;4604;48.616;9.548;2023-04-01T13:14:33;95681.81;;;10.76;83.73
9139;BME280;4604;48.616;9.548;2023-04-01T13:17:10;95691.75;;;10.57;82.75
9139;BME280;4604;48.616;9.548;2023-04-01T13:19:45;95688.09;;;10.66;82.59
9139;BME280;4604;48.616;9.548;2023-04-01T13:22:20;95684.06;;;10.87;82.58
9139;BME280;4604;48.616;9.548;2023-04-01T13:24:52;95684.75;;;10.73;78.48
9139;BME280;4604;48.616;9.548;2023-04-01T13:27:29;95702.31;;;10.57;80.82
9139;BME280;4604;48.616;9.548;2023-04-01T13:30:10;95700.94;;;10.69;78.78
9139;BME280;4604;48.616;9.548;2023-04-01T13:32:47;95710.72;;;10.53;76.07
9139;BME280;4604;48.616;9.548;2023-04-01T13:35:36;95704.47;;;10.45;77.50
9139;BME280;4604;48.616;9.548;2023-04-01T13:38:42;95709.56;;;10.55;78.19
9139;BME280;4604;48.616;9.548;2023-04-01T13:41:20;95678.31;;;10.83;77.90
9139;BME280;4604;48.616;9.548;2023-04-01T13:43:51;95686.97;;;11.00;75.19
9139;BME280;4604;48.616;9.548;2023-04-01T13:46:38;95696.38;;;11.03;75.41
9139;BME280;4604;48.616;9.548;2023-04-01T13:49:23;95693.47;;;11.21;74.39
9139;BME280;4604;48.616;9.548;2023-04-01T13:52:31;95685.38;;;10.91;72.80
9139;BME280;4604;48.616;9.548;2023-04-01T13:55:24;95682.09;;;11.20;72.33
9139;BME280;4604;48.616;9.548;2023-04-01T13:58:17;95691.63;;;11.52;72.25
9139;BME280;4604;48.616;9.548;2023-04-01T14:00:54;95698.66;;;11.37;70.03
9139;BME280;4604;48.616;9.548;2023-04-01T14:06:56;95694.41;;;11.28;70.84
9139;BME280;4604;48.616;9.548;2023-04-01T14:09:44;95699.84;;;11.26;72.13
9139;BME280;4604;48.616;9.548;2023-04-01T14:12:26;95734.59;;;11.15;71.84
9139;BME280;4604;48.616;9.548;2023-04-01T14:15:14;95687.72;;;11.17;72.35
9139;BME280;4604;48.616;9.548;2023-04-01T14:17:59;95690.16;;;11.50;72.41
9139;BME280;4604;48.616;9.548;2023-04-01T14:20:38;95699.19;;;11.32;70.91
9139;BME280;4604;48.616;9.548;2023-04-01T14:23:15;95707.47;;;11.21;71.67
9139;BME280;4604;48.616;9.548;2023-04-01T14:26:00;95708.00;;;11.17;72.92
9139;BME280;4604;48.616;9.548;2023-04-01T14:28:38;95714.16;;;11.09;72.73
9139;BME280;4604;48.616;9.548;2023-04-01T14:31:23;95704.50;;;11.24;71.44
9139;BME280;4604;48.616;9.548;2023-04-01T14:34:00;95715.00;;;11.01;71.27
9139;BME280;4604;48.616;9.548;2023-04-01T14:36:47;95716.22;;;10.90;71.44
9139;BME280;4604;48.616;9.548;2023-04-01T14:39:33;95714.09;;;10.78;72.17
9139;BME280;4604;48.616;9.548;2023-04-01T14:42:30;95726.06;;;11.05;71.96
9139;BME280;4604;48.616;9.548;2023-04-01T14:45:17;95722.78;;;11.03;70.06
9139;BME280;4604;48.616;9.548;2023-04-01T14:47:51;95717.94;;;10.67;72.86
9139;BME280;4604;48.616;9.548;2023-04-01T14:50:21;95716.47;;;10.64;72.96
9139;BME280;4604;48.616;9.548;2023-04-01T14:52:57;95725.19;;;10.65;73.41
9139;BME280;4604;48.616;9.548;2023-04-01T14:55:30;95736.88;;;10.79;72.24
9139;BME280;4604;48.616;9.548;2023-04-01T14:58:09;95732.75;;;10.68;72.21
9139;BME280;4604;48.616;9.548;2023-04-01T15:00:58;95747.97;;;10.58;71.19
9139;BME280;4604;48.616;9.548;2023-04-01T15:03:29;95732.50;;;10.46;72.63
9139;BME280;4604;48.616;9.548;2023-04-01T15:06:30;95729.38;;;10.51;72.06
9139;BME280;4604;48.616;9.548;2023-04-01T15:09:06;95737.28;;;10.43;71.72
9139;BME280;4604;48.616;9.548;2023-04-01T15:11:47;95752.00;;;10.29;73.13
9139;BME280;4604;48.616;9.548;2023-04-01T15:14:35;95734.84;;;10.41;72.68
9139;BME280;4604;48.616;9.548;2023-04-01T15:17:23;95741.06;;;10.57;72.08
9139;BME280;4604;48.616;9.548;2023-04-01T15:20:03;95732.13;;;10.66;72.55